createdAt,value
2022-10-22T00:01:41.276Z,100237.31
2022-10-22T00:04:08.864Z,100243.38
2022-10-22T00:06:36.297Z,100248.69
2022-10-22T00:09:06.383Z,100246.13
2022-10-22T00:11:34.157Z,100249.72
2022-10-22T00:14:01.700Z,100245.22
2022-10-22T00:16:29.354Z,100245.22
2022-10-22T00:18:56.926Z,100247.25
2022-10-22T00:21:25.756Z,100235.09
2022-10-22T00:23:53.169Z,100238.91
2022-10-22T00:26:20.796Z,100234.66
2022-10-22T00:28:48.300Z,100243.44
2022-10-22T00:31:15.961Z,100240.09
2022-10-22T00:33:45.800Z,100235.09
2022-10-22T00:36:13.606Z,100237.66
2022-10-22T00:38:41.276Z,100232.53
2022-10-22T00:41:09.038Z,100229.09
2022-10-22T00:43:58.011Z,100234.97
2022-10-22T00:46:26.030Z,100230.22
2022-10-22T00:48:54.965Z,100232.63
2022-10-22T00:51:27.357Z,100229.88
2022-10-22T00:54:00.506Z,100230.66
2022-10-22T00:56:28.167Z,100228.84
2022-10-22T00:59:00.758Z,100233.22
2022-10-22T01:01:31.397Z,100234.03
2022-10-22T01:03:59.393Z,100224.69
2022-10-22T01:06:32.576Z,100216.94
2022-10-22T01:09:19.870Z,100219.94
2022-10-22T01:12:12.939Z,100227.94
2022-10-22T01:14:58.711Z,100223.19
2022-10-22T01:17:31.810Z,100230.06
2022-10-22T01:20:37.516Z,100231.38
2022-10-22T01:23:16.802Z,100228.47
2022-10-22T01:26:05.746Z,100235.78
2022-10-22T01:28:56.689Z,100232.63
2022-10-22T01:31:39.895Z,100234.09
2022-10-22T01:34:12.240Z,100233.06
2022-10-22T01:36:46.835Z,100237.22
2022-10-22T01:39:16.392Z,100234.75
2022-10-22T01:41:48.555Z,100239.94
2022-10-22T01:44:50.352Z,100246.00
2022-10-22T01:47:29.594Z,100245.41
2022-10-22T01:50:25.006Z,100241.97
2022-10-22T01:53:30.724Z,100238.25
2022-10-22T01:56:00.554Z,100233.41
2022-10-22T01:58:54.556Z,100237.09
2022-10-22T02:01:59.171Z,100236.50
2022-10-22T02:04:39.940Z,100233.88
2022-10-22T02:07:10.918Z,100242.56
2022-10-22T02:09:47.094Z,100245.41
2022-10-22T02:12:27.181Z,100245.94
2022-10-22T02:14:57.137Z,100247.75
2022-10-22T02:17:27.766Z,100237.97
2022-10-22T02:20:00.648Z,100249.28
2022-10-22T02:22:29.117Z,100254.22
2022-10-22T02:24:56.975Z,100252.44
2022-10-22T02:27:36.491Z,100252.63
2022-10-22T02:30:06.039Z,100251.56
2022-10-22T02:32:42.004Z,100247.97
2022-10-22T02:35:13.819Z,100255.69
2022-10-22T02:37:41.936Z,100245.47
2022-10-22T02:40:18.526Z,100245.22
2022-10-22T02:42:51.215Z,100256.59
2022-10-22T02:45:20.219Z,100255.53
2022-10-22T02:47:47.940Z,100249.63
2022-10-22T02:50:15.832Z,100255.88
2022-10-22T02:52:43.586Z,100249.72
2022-10-22T02:55:13.545Z,100251.47
2022-10-22T02:57:51.580Z,100262.06
2022-10-22T03:00:21.445Z,100267.25
2022-10-22T03:02:51.838Z,100264.78
2022-10-22T03:05:19.340Z,100256.22
2022-10-22T03:07:49.244Z,100265.75
2022-10-22T03:10:17.021Z,100262.34
2022-10-22T03:12:56.307Z,100253.66
2022-10-22T03:15:23.873Z,100260.03
2022-10-22T03:17:56.962Z,100250.25
2022-10-22T03:20:24.532Z,100265.06
2022-10-22T03:22:52.740Z,100252.09
2022-10-22T03:25:24.110Z,100261.69
2022-10-22T03:28:02.834Z,100259.13
2022-10-22T03:30:30.405Z,100255.69
2022-10-22T03:32:57.925Z,100259.13
2022-10-22T03:35:28.065Z,100264.34
2022-10-22T03:38:01.201Z,100248.13
2022-10-22T03:40:36.170Z,100258.53
2022-10-22T03:43:03.658Z,100259.50
2022-10-22T03:45:31.123Z,100254.19
2022-10-22T03:48:00.814Z,100259.50
2022-10-22T03:50:28.547Z,100258.69
2022-10-22T03:52:55.965Z,100263.28
2022-10-22T03:55:23.617Z,100255.78
2022-10-22T03:57:51.172Z,100258.59
2022-10-22T04:00:18.834Z,100251.63
2022-10-22T04:02:48.522Z,100259.47
2022-10-22T04:05:16.262Z,100261.16
2022-10-22T04:07:43.881Z,100253.28
2022-10-22T04:10:11.569Z,100261.84
2022-10-22T04:12:39.212Z,100260.16
2022-10-22T04:15:07.267Z,100260.81
2022-10-22T04:17:38.418Z,100247.16
2022-10-22T04:20:06.794Z,100260.16
2022-10-22T04:22:37.155Z,100250.59
2022-10-22T04:25:07.129Z,100258.59
2022-10-22T04:27:35.155Z,100246.25
2022-10-22T04:30:06.768Z,100259.63
2022-10-22T04:32:36.711Z,100265.03
2022-10-22T04:35:04.630Z,100255.41
2022-10-22T04:37:38.100Z,100253.72
2022-10-22T04:40:06.455Z,100267.38
2022-10-22T04:42:33.950Z,100259.56
2022-10-22T04:45:01.411Z,100264.94
2022-10-22T04:47:30.581Z,100257.00
2022-10-22T04:50:00.260Z,100261.75
2022-10-22T04:52:35.254Z,100275.31
2022-10-22T04:55:02.858Z,100267.75
2022-10-22T04:57:31.302Z,100273.66
2022-10-22T05:00:03.862Z,100277.88
2022-10-22T05:02:32.252Z,100278.84
2022-10-22T05:05:02.231Z,100265.81
2022-10-22T05:07:31.227Z,100273.72
2022-10-22T05:09:58.737Z,100285.19
2022-10-22T05:12:26.262Z,100286.16
2022-10-22T05:14:56.233Z,100276.78
2022-10-22T05:17:23.652Z,100273.28
2022-10-22T05:19:51.141Z,100279.34
2022-10-22T05:22:21.401Z,100266.47
2022-10-22T05:24:51.146Z,100282.34
2022-10-22T05:29:46.985Z,100271.50
2022-10-22T05:32:17.154Z,100281.19
2022-10-22T05:34:44.769Z,100285.13
2022-10-22T05:37:12.193Z,100279.13
2022-10-22T05:39:41.755Z,100296.03
2022-10-22T05:42:14.267Z,100297.34
2022-10-22T05:44:41.793Z,100292.22
2022-10-22T05:47:10.141Z,100285.66
2022-10-22T05:49:40.126Z,100290.22
2022-10-22T05:52:15.026Z,100293.13
2022-10-22T05:54:42.628Z,100301.16
2022-10-22T05:57:12.506Z,100299.78
2022-10-22T05:59:40.049Z,100284.28
2022-10-22T06:02:09.866Z,100293.41
2022-10-22T06:04:37.513Z,100296.75
2022-10-22T06:07:15.583Z,100298.22
2022-10-22T06:09:50.500Z,100293.81
2022-10-22T06:12:26.102Z,100288.59
2022-10-22T06:14:53.620Z,100299.88
2022-10-22T06:17:25.634Z,100288.69
2022-10-22T06:19:55.346Z,100292.28
2022-10-22T06:22:22.909Z,100300.91
2022-10-22T06:24:50.338Z,100293.63
2022-10-22T06:27:17.851Z,100302.44
2022-10-22T06:29:47.816Z,100299.81
2022-10-22T06:32:15.341Z,100301.72
2022-10-22T06:34:48.453Z,100298.59
2022-10-22T06:37:16.264Z,100307.72
2022-10-22T06:39:43.828Z,100309.66
2022-10-22T06:42:11.396Z,100313.34
2022-10-22T06:44:43.441Z,100313.63
2022-10-22T06:47:13.313Z,100312.19
2022-10-22T06:49:43.194Z,100307.06
2022-10-22T06:52:13.080Z,100303.88
2022-10-22T06:54:43.243Z,100313.03
2022-10-22T06:57:13.196Z,100314.47
2022-10-22T06:59:43.087Z,100302.22
2022-10-22T07:02:15.646Z,100319.56
2022-10-22T07:04:45.600Z,100313.03
2022-10-22T07:07:16.308Z,100315.09
2022-10-22T07:09:46.890Z,100318.38
2022-10-22T07:12:14.636Z,100306.66
2022-10-22T07:14:42.367Z,100312.94
2022-10-22T07:17:12.785Z,100320.63
2022-10-22T07:19:40.239Z,100322.84
2022-10-22T07:22:07.759Z,100315.66
2022-10-22T07:24:35.231Z,100321.03
2022-10-22T07:27:02.767Z,100317.22
2022-10-22T07:29:33.078Z,100328.28
2022-10-22T07:32:00.596Z,100326.69
2022-10-22T07:34:28.059Z,100329.19
2022-10-22T07:36:57.283Z,100318.09
2022-10-22T07:39:25.979Z,100330.13
2022-10-22T07:41:53.459Z,100314.66
2022-10-22T07:44:20.996Z,100316.91
2022-10-22T07:46:49.092Z,100313.03
2022-10-22T07:49:16.701Z,100312.22
2022-10-22T07:51:44.181Z,100313.28
2022-10-22T07:54:19.443Z,100307.59
2022-10-22T07:56:56.019Z,100326.34
2022-10-22T07:59:30.847Z,100321.97
2022-10-22T08:02:16.029Z,100305.09
2022-10-22T08:04:43.488Z,100318.38
2022-10-22T08:07:10.927Z,100324.34
2022-10-22T08:09:40.522Z,100327.84
2022-10-22T08:12:08.130Z,100317.44
2022-10-22T08:14:35.748Z,100319.72
2022-10-22T08:17:03.363Z,100313.34
2022-10-22T08:19:32.576Z,100321.25
2022-10-22T08:22:00.048Z,100317.97
2022-10-22T08:24:27.711Z,100312.72
2022-10-22T08:26:58.717Z,100323.91
2022-10-22T08:29:26.977Z,100316.84
2022-10-22T08:31:54.985Z,100310.72
2022-10-22T08:34:22.764Z,100310.91
2022-10-22T08:36:50.220Z,100322.22
2022-10-22T08:39:20.267Z,100311.72
2022-10-22T08:42:06.256Z,100325.84
2022-10-22T08:44:45.411Z,100323.59
2022-10-22T08:47:24.845Z,100325.72
2022-10-22T08:49:54.530Z,100325.69
2022-10-22T08:52:22.149Z,100324.50
2022-10-22T08:55:01.956Z,100325.19
2022-10-22T08:57:59.744Z,100331.50
2022-10-22T09:00:47.787Z,100330.63
2022-10-22T09:03:31.141Z,100329.06
2022-10-22T09:06:13.045Z,100319.91
2022-10-22T09:08:42.662Z,100325.19
2022-10-22T09:11:12.925Z,100327.31
2022-10-22T09:13:42.264Z,100320.72
2022-10-22T09:16:43.906Z,100323.75
2022-10-22T09:19:29.754Z,100322.25
2022-10-22T09:22:18.626Z,100321.53
2022-10-22T09:24:48.923Z,100321.38
2022-10-22T09:27:19.101Z,100316.25
2022-10-22T09:29:48.205Z,100309.34
2022-10-22T09:32:18.909Z,100318.41
2022-10-22T09:34:48.827Z,100312.66
2022-10-22T09:37:19.073Z,100305.78
2022-10-22T09:39:52.534Z,100321.59
2022-10-22T09:42:21.362Z,100301.69
2022-10-22T09:45:08.599Z,100307.97
2022-10-22T09:48:00.450Z,100308.13
2022-10-22T09:50:49.980Z,100310.53
2022-10-22T09:53:17.416Z,100314.78
2022-10-22T09:55:51.181Z,100316.41
2022-10-22T09:58:20.124Z,100303.22
2022-10-22T10:01:07.763Z,100312.59
2022-10-22T10:03:37.717Z,100316.53
2022-10-22T10:06:07.407Z,100309.66
2022-10-22T10:08:38.035Z,100302.03
2022-10-22T10:11:18.192Z,100300.28
2022-10-22T10:14:27.174Z,100300.63
2022-10-22T10:17:03.014Z,100299.22
2022-10-22T10:19:51.425Z,100289.34
2022-10-22T10:22:40.893Z,100303.66
2022-10-22T10:25:24.723Z,100301.22
2022-10-22T10:28:17.415Z,100296.44
2022-10-22T10:31:17.773Z,100292.44
2022-10-22T10:34:23.125Z,100292.00
2022-10-22T10:37:32.510Z,100295.06
2022-10-22T10:40:23.086Z,100292.22
2022-10-22T10:43:03.854Z,100295.13
2022-10-22T10:45:40.369Z,100286.88
2022-10-22T10:48:19.142Z,100281.81
2022-10-22T10:51:14.490Z,100285.09
2022-10-22T10:53:53.919Z,100280.47
2022-10-22T10:56:39.191Z,100281.06
2022-10-22T10:59:18.688Z,100276.38
2022-10-22T11:02:17.106Z,100277.31
2022-10-22T11:05:01.893Z,100271.38
2022-10-22T11:07:54.950Z,100271.38
2022-10-22T11:10:30.053Z,100269.19
2022-10-22T11:13:22.559Z,100271.84
2022-10-22T11:16:06.110Z,100270.44
2022-10-22T11:18:42.051Z,100261.41
2022-10-22T11:21:27.247Z,100258.72
2022-10-22T11:24:23.106Z,100261.66
2022-10-22T11:26:57.652Z,100261.00
2022-10-22T11:29:33.203Z,100250.59
2022-10-22T11:32:03.047Z,100247.00
2022-10-22T11:34:41.273Z,100263.25
2022-10-22T11:37:14.188Z,100260.25
2022-10-22T11:39:50.799Z,100256.81
2022-10-22T11:42:41.061Z,100253.81
2022-10-22T11:45:14.492Z,100250.88
2022-10-22T11:48:04.901Z,100250.06
2022-10-22T11:50:41.562Z,100246.75
2022-10-22T11:53:15.017Z,100237.97
2022-10-22T11:56:13.236Z,100233.44
2022-10-22T11:58:45.075Z,100234.47
2022-10-22T12:01:12.607Z,100246.47
2022-10-22T12:03:42.518Z,100238.94
2022-10-22T12:06:15.957Z,100240.69
2022-10-22T12:08:49.324Z,100244.28
2022-10-22T12:11:25.807Z,100224.22
2022-10-22T12:14:19.969Z,100238.41
2022-10-22T12:16:57.812Z,100233.16
2022-10-22T12:19:34.204Z,100232.03
2022-10-22T12:22:07.904Z,100224.28
2022-10-22T12:24:38.639Z,100216.16
2022-10-22T12:27:22.449Z,100220.84
2022-10-22T12:29:55.939Z,100212.84
2022-10-22T12:32:35.316Z,100218.63
2022-10-22T12:35:11.922Z,100216.84
2022-10-22T12:37:41.968Z,100217.81
2022-10-22T12:40:21.071Z,100207.47
2022-10-22T12:42:58.038Z,100198.47
2022-10-22T12:45:31.461Z,100205.66
2022-10-22T12:48:05.543Z,100204.72
2022-10-22T12:50:39.592Z,100201.91
2022-10-22T12:53:23.154Z,100200.91
2022-10-22T12:55:53.081Z,100214.09
2022-10-22T12:58:34.694Z,100200.09
2022-10-22T13:01:04.960Z,100204.47
2022-10-22T13:03:35.353Z,100199.72
2022-10-22T13:06:20.535Z,100209.41
2022-10-22T13:09:06.495Z,100203.00
2022-10-22T13:11:42.898Z,100199.97
2022-10-22T13:14:39.630Z,100213.78
2022-10-22T13:17:18.387Z,100211.09
2022-10-22T13:19:52.933Z,100210.84
2022-10-22T13:22:41.027Z,100216.78
2022-10-22T13:25:20.253Z,100212.09
2022-10-22T13:27:54.781Z,100205.75
2022-10-22T13:30:36.073Z,100203.03
2022-10-22T13:33:07.823Z,100215.47
2022-10-22T13:35:38.341Z,100204.47
2022-10-22T13:38:24.034Z,100200.06
2022-10-22T13:40:52.049Z,100194.31
2022-10-22T13:43:22.209Z,100210.38
2022-10-22T13:45:54.346Z,100206.56
2022-10-22T13:48:24.593Z,100197.41
2022-10-22T13:51:01.926Z,100205.34
2022-10-22T13:53:31.252Z,100202.38
2022-10-22T13:56:01.824Z,100204.94
2022-10-22T13:58:31.629Z,100193.56
2022-10-22T14:01:01.026Z,100193.97
2022-10-22T14:03:32.404Z,100188.53
2022-10-22T14:06:02.642Z,100190.38
2022-10-22T14:08:30.247Z,100189.50
2022-10-22T14:10:57.877Z,100183.66
2022-10-22T14:13:27.485Z,100183.50
2022-10-22T14:16:00.029Z,100192.13
2022-10-22T14:18:31.725Z,100192.69
2022-10-22T14:21:10.242Z,100181.09
2022-10-22T14:23:48.065Z,100195.44
2022-10-22T14:26:27.477Z,100202.13
2022-10-22T14:29:11.807Z,100196.03
2022-10-22T14:34:17.052Z,100190.78
2022-10-22T14:36:44.809Z,100192.69
2022-10-22T14:39:14.508Z,100192.69
2022-10-22T14:41:42.718Z,100203.72
2022-10-22T14:44:14.581Z,100185.81
2022-10-22T14:46:45.323Z,100185.19
2022-10-22T14:49:18.528Z,100182.78
2022-10-22T14:51:46.060Z,100182.72
2022-10-22T14:54:22.312Z,100189.25
2022-10-22T14:57:16.680Z,100192.78
2022-10-22T15:00:40.258Z,100191.66
2022-10-22T15:03:45.460Z,100185.81
2022-10-22T15:06:17.674Z,100185.59
2022-10-22T15:08:47.666Z,100196.06
2022-10-22T15:11:17.434Z,100190.94
2022-10-22T15:13:45.039Z,100171.81
2022-10-22T15:16:15.845Z,100172.94
2022-10-22T15:18:43.327Z,100192.22
2022-10-22T15:21:21.572Z,100190.78
2022-10-22T15:23:49.802Z,100187.28
2022-10-22T15:26:17.810Z,100181.91
2022-10-22T15:28:45.372Z,100185.69
2022-10-22T15:31:14.727Z,100195.19
2022-10-22T15:33:43.447Z,100197.53
2022-10-22T15:36:21.523Z,100184.53
2022-10-22T15:38:49.000Z,100181.09
2022-10-22T15:41:16.552Z,100182.78
2022-10-22T15:43:47.481Z,100189.66
2022-10-22T15:46:30.839Z,100192.22
2022-10-22T15:49:00.937Z,100181.75
2022-10-22T15:51:30.686Z,100184.41
2022-10-22T15:53:59.536Z,100189.44
2022-10-22T15:56:29.469Z,100197.00
2022-10-22T15:59:00.197Z,100198.00
2022-10-22T16:01:32.138Z,100185.59
2022-10-22T16:04:00.434Z,100202.78
2022-10-22T16:06:47.069Z,100192.13
2022-10-22T16:09:18.772Z,100197.47
2022-10-22T16:11:50.138Z,100197.41
2022-10-22T16:14:21.845Z,100200.53
2022-10-22T16:17:11.837Z,100201.72
2022-10-22T16:19:39.246Z,100201.81
2022-10-22T16:22:09.779Z,100202.91
2022-10-22T16:24:45.539Z,100196.03
2022-10-22T16:27:13.052Z,100202.19
2022-10-22T16:29:40.758Z,100192.53
2022-10-22T16:32:08.336Z,100196.69
2022-10-22T16:34:35.824Z,100198.25
2022-10-22T16:37:04.454Z,100198.59
2022-10-22T16:39:35.105Z,100206.53
2022-10-22T16:42:02.716Z,100177.72
2022-10-22T16:44:33.161Z,100196.03
2022-10-22T16:47:01.148Z,100197.66
2022-10-22T16:49:31.452Z,100196.03
2022-10-22T16:52:06.508Z,100196.03
2022-10-22T16:54:37.108Z,100190.94
2022-10-22T16:57:07.826Z,100186.63
2022-10-22T17:17:18.366Z,100177.00
2022-10-22T17:20:45.893Z,100168.38
2022-10-22T17:23:23.202Z,100172.47
2022-10-22T17:30:00.740Z,100151.75
2022-10-22T17:32:30.745Z,100160.63
2022-10-22T17:34:58.544Z,100158.47
2022-10-22T17:37:25.959Z,100154.50
2022-10-22T17:40:27.492Z,100160.63
2022-10-22T17:44:02.518Z,100160.31
2022-10-22T17:47:40.589Z,100151.81
2022-10-22T17:50:26.559Z,100144.47
2022-10-22T17:53:46.271Z,100153.59
2022-10-22T17:56:43.072Z,100147.28
2022-10-22T18:08:12.514Z,100135.31
2022-10-22T18:10:40.470Z,100127.91
2022-10-22T18:13:08.525Z,100134.63
2022-10-22T18:15:36.571Z,100133.03
2022-10-22T18:18:04.565Z,100120.31
2022-10-22T18:20:34.881Z,100124.66
2022-10-22T18:23:15.110Z,100113.84
2022-10-22T18:25:42.694Z,100116.41
2022-10-22T18:28:13.052Z,100114.72
2022-10-22T18:30:45.955Z,100122.50
2022-10-22T18:33:18.024Z,100121.44
2022-10-22T18:35:52.567Z,100115.47
2022-10-22T18:38:23.773Z,100120.03
2022-10-22T18:40:54.133Z,100113.16
2022-10-22T18:43:21.721Z,100109.47
2022-10-22T18:45:49.312Z,100102.34
2022-10-22T18:48:23.138Z,100095.94
2022-10-22T18:51:02.920Z,100106.75
2022-10-22T18:53:32.651Z,100103.00
2022-10-22T18:56:00.444Z,100109.06
2022-10-22T18:58:30.402Z,100096.28
2022-10-22T19:00:57.915Z,100103.00
2022-10-22T19:03:25.401Z,100104.22
2022-10-22T19:05:57.451Z,100103.28
2022-10-22T19:08:27.495Z,100100.66
2022-10-22T19:10:55.092Z,100096.59
2022-10-22T19:13:25.460Z,100098.97
2022-10-22T19:15:54.913Z,100095.41
2022-10-22T19:18:22.349Z,100094.19
2022-10-22T19:21:01.863Z,100092.78
2022-10-22T19:23:30.709Z,100088.94
2022-10-22T19:26:12.653Z,100091.97
2022-10-22T19:28:40.709Z,100101.25
2022-10-22T19:31:16.726Z,100096.44
2022-10-22T19:33:44.292Z,100098.91
2022-10-22T19:36:16.236Z,100092.78
2022-10-22T19:38:46.820Z,100098.84
2022-10-22T19:41:17.600Z,100095.53
2022-10-22T19:43:54.032Z,100094.25
2022-10-22T19:46:23.158Z,100091.88
2022-10-22T19:48:52.392Z,100101.66
2022-10-22T19:51:22.069Z,100093.38
2022-10-22T19:53:50.103Z,100090.69
2022-10-22T19:56:21.964Z,100102.13
2022-10-22T19:58:49.636Z,100091.31
2022-10-22T20:01:18.810Z,100086.91
2022-10-22T20:03:55.569Z,100092.66
2022-10-22T20:06:23.138Z,100091.63
2022-10-22T20:08:56.022Z,100098.69
2022-10-22T20:11:27.885Z,100101.88
2022-10-22T20:13:58.654Z,100101.41
2022-10-22T20:16:29.928Z,100097.22
2022-10-22T20:20:02.364Z,100095.31
2022-10-22T20:22:44.868Z,100096.94
2022-10-22T20:29:34.000Z,100089.25
2022-10-22T20:32:04.291Z,100092.59
2022-10-22T20:35:11.282Z,100106.34
2022-10-22T20:46:28.008Z,100086.69
2022-10-22T20:50:09.021Z,100072.47
2022-10-22T20:53:50.424Z,100086.19
2022-10-22T21:05:06.362Z,100071.09
2022-10-22T21:14:50.749Z,100078.22
2022-10-22T21:17:20.664Z,100066.47
2022-10-22T21:20:02.454Z,100055.19
2022-10-22T21:22:46.756Z,100065.25
2022-10-22T21:25:16.706Z,100064.13
2022-10-22T21:27:44.205Z,100050.41
2022-10-22T21:30:15.243Z,100052.25
2022-10-22T21:32:44.109Z,100068.28
2022-10-22T21:35:12.415Z,100063.91
2022-10-22T21:38:10.379Z,100035.53
2022-10-22T21:40:59.517Z,100047.75
2022-10-22T21:43:26.975Z,100046.00
2022-10-22T21:46:06.965Z,100044.47
2022-10-22T21:48:44.676Z,100028.75
2022-10-22T21:51:23.968Z,100038.75
2022-10-22T21:53:55.027Z,100024.03
2022-10-22T21:56:42.523Z,100025.63
2022-10-22T21:59:40.410Z,100025.88
2022-10-22T22:02:52.906Z,100029.53
2022-10-22T22:06:04.092Z,100025.00
2022-10-22T22:09:17.325Z,100017.88
2022-10-22T22:12:40.889Z,100017.00
2022-10-22T22:15:46.156Z,100007.06
2022-10-22T22:23:09.782Z,100002.28
2022-10-22T22:34:53.209Z,99990.88
2022-10-22T22:37:20.768Z,99997.44
2022-10-22T22:47:38.868Z,99982.66
2022-10-22T22:50:07.401Z,99981.44
2022-10-22T22:52:59.392Z,99973.28
2022-10-22T22:56:18.659Z,99968.59
2022-10-22T22:59:07.277Z,99965.97
2022-10-22T23:01:38.054Z,99969.13
2022-10-22T23:04:11.288Z,99969.38
2022-10-22T23:06:39.648Z,99958.84
2022-10-22T23:09:13.674Z,99962.34
2022-10-22T23:11:43.356Z,99943.38
2022-10-22T23:14:14.880Z,99956.38
2022-10-22T23:16:49.312Z,99948.47
2022-10-22T23:19:19.375Z,99945.91
2022-10-22T23:21:49.675Z,99946.06
2022-10-22T23:24:27.116Z,99938.72
2022-10-22T23:26:56.523Z,99939.13
2022-10-22T23:29:26.801Z,99932.97
2022-10-22T23:31:55.631Z,99940.16
2022-10-22T23:34:33.113Z,99931.47
2022-10-22T23:37:00.628Z,99933.69
2022-10-22T23:39:29.648Z,99927.72
2022-10-22T23:41:57.793Z,99930.50
2022-10-22T23:44:25.825Z,99921.94
2022-10-22T23:46:55.674Z,99919.47
2022-10-22T23:49:25.568Z,99909.25
2022-10-22T23:51:53.100Z,99922.25
2022-10-22T23:54:20.570Z,99917.81
2022-10-22T23:56:50.437Z,99907.50
